Time;durP1;ratioP1;P1;durP2;ratioP2;P2;SDS_P1;SDS_P2;PMS_P1;PMS_P2;Temp;Humidity;BMP_temperature;BMP_pressure;BME280_temperature;BME280_humidity;BME280_pressure;Samples;Min_cycle;Max_cycle;Signal;HPM_P1;HPM_P2
2021/03/16 00:00:25;;;;;;;33.72;7.18;;;7.30;99.90;;;;;;4915209;29;20111;-95
2021/03/16 00:02:51;;;;;;;40.10;9.75;;;7.30;99.90;;;;;;4915186;29;20060;-96
2021/03/16 00:05:16;;;;;;;31.00;7.40;;;7.40;99.90;;;;;;4918958;29;20112;-94
2021/03/16 00:07:42;;;;;;;35.78;9.80;;;7.40;99.90;;;;;;4919596;29;20040;-94
2021/03/16 00:10:08;;;;;;;33.17;8.85;;;7.40;99.90;;;;;;4916524;29;20459;-94
2021/03/16 00:12:34;;;;;;;42.28;10.55;;;7.30;99.90;;;;;;4919281;29;20124;-95
2021/03/16 00:15:00;;;;;;;30.73;9.27;;;7.30;99.90;;;;;;4919185;29;20111;-94
2021/03/16 00:17:25;;;;;;;40.22;9.73;;;7.30;99.90;;;;;;4914586;29;20048;-94
2021/03/16 00:19:51;;;;;;;29.20;9.27;;;7.40;99.90;;;;;;4914053;29;20043;-94
2021/03/16 00:22:17;;;;;;;43.58;11.05;;;7.40;99.90;;;;;;4901807;29;20025;-93
2021/03/16 00:24:42;;;;;;;42.85;9.88;;;7.40;99.90;;;;;;4898517;29;20040;-93
2021/03/16 00:27:09;;;;;;;31.83;8.65;;;7.40;99.90;;;;;;4916086;29;20478;-94
2021/03/16 00:29:35;;;;;;;41.85;9.48;;;7.30;99.90;;;;;;4898259;29;20037;-94
2021/03/16 00:32:00;;;;;;;42.38;8.88;;;7.40;99.90;;;;;;4914755;29;20193;-94
2021/03/16 00:34:26;;;;;;;42.72;10.65;;;7.40;99.90;;;;;;4918715;29;20085;-94
2021/03/16 00:36:52;;;;;;;40.22;9.13;;;7.40;99.90;;;;;;4918182;29;20058;-95
2021/03/16 00:39:17;;;;;;;30.92;8.02;;;7.40;99.90;;;;;;4918276;29;20131;-93
2021/03/16 00:41:43;;;;;;;31.25;8.85;;;7.40;99.90;;;;;;4918864;29;20102;-92
2021/03/16 00:44:09;;;;;;;37.03;11.25;;;7.40;99.90;;;;;;4915398;29;20033;-94
2021/03/16 00:46:35;;;;;;;45.05;9.73;;;7.40;99.90;;;;;;4914259;29;20025;-92
2021/03/16 00:49:01;;;;;;;33.95;8.98;;;7.30;99.90;;;;;;4914804;29;20028;-93
2021/03/16 00:51:30;;;;;;;24.25;6.05;;;7.30;99.90;;;;;;4918730;29;20027;-93
2021/03/16 00:53:56;;;;;;;35.13;7.80;;;7.30;99.90;;;;;;4913927;29;20075;-95
2021/03/16 00:56:21;;;;;;;32.58;8.38;;;7.30;99.90;;;;;;4916635;29;20390;-94
2021/03/16 00:58:47;;;;;;;25.92;7.20;;;7.40;99.90;;;;;;4914251;29;20398;-95
2021/03/16 01:01:13;;;;;;;28.23;7.05;;;7.30;99.90;;;;;;4922648;29;20428;-93
2021/03/16 01:03:39;;;;;;;36.83;9.02;;;7.30;99.90;;;;;;4919284;29;20032;-93
2021/03/16 01:06:05;;;;;;;34.65;7.53;;;7.30;99.90;;;;;;4914744;29;20060;-94
2021/03/16 01:08:31;;;;;;;23.63;7.70;;;7.40;99.90;;;;;;4914022;29;20075;-93
2021/03/16 01:10:57;;;;;;;47.42;8.57;;;7.30;99.90;;;;;;4914271;29;20040;-95
2021/03/16 01:13:23;;;;;;;34.50;7.93;;;7.40;99.90;;;;;;4905594;29;20036;-95
2021/03/16 01:15:49;;;;;;;38.38;8.40;;;7.40;99.90;;;;;;4914994;29;20502;-94
2021/03/16 01:18:15;;;;;;;39.92;8.38;;;7.40;99.90;;;;;;4916693;29;20447;-94
2021/03/16 01:20:42;;;;;;;37.92;8.93;;;7.40;99.90;;;;;;4913637;29;20059;-95
2021/03/16 01:23:08;;;;;;;39.80;10.27;;;7.40;99.90;;;;;;4916709;29;20037;-92
2021/03/16 01:25:34;;;;;;;40.58;10.40;;;7.40;99.90;;;;;;4914635;29;20036;-94
2021/03/16 01:28:00;;;;;;;38.67;9.63;;;7.40;99.90;;;;;;4898547;29;20491;-94
2021/03/16 01:30:26;;;;;;;23.85;7.38;;;7.50;99.90;;;;;;4914027;29;20554;-94
2021/03/16 01:32:52;;;;;;;36.70;9.65;;;7.40;99.90;;;;;;4913875;29;20060;-95
2021/03/16 01:35:19;;;;;;;28.33;7.85;;;7.40;99.90;;;;;;4916186;29;20040;-95
2021/03/16 01:37:44;;;;;;;28.17;7.38;;;7.50;99.90;;;;;;4913389;29;20029;-95
2021/03/16 01:40:12;;;;;;;43.47;9.32;;;7.40;99.90;;;;;;4917151;29;20039;-94
2021/03/16 01:42:38;;;;;;;45.85;10.70;;;7.40;99.90;;;;;;4917497;29;20033;-94
2021/03/16 01:45:15;;;;;;;36.88;9.82;;;7.50;99.90;;;;;;4902806;29;20032;-94
2021/03/16 01:47:49;;;;;;;44.63;9.68;;;7.50;99.90;;;;;;4918275;29;20043;-94
2021/03/16 01:50:18;;;;;;;41.38;10.07;;;7.50;99.90;;;;;;4920969;29;20053;-95
2021/03/16 01:52:45;;;;;;;39.28;9.00;;;7.40;99.90;;;;;;4929428;29;20024;-95
2021/03/16 01:55:12;;;;;;;42.47;11.20;;;7.50;99.90;;;;;;4936741;29;20069;-94
2021/03/16 01:57:41;;;;;;;39.85;9.73;;;7.50;99.90;;;;;;4938572;29;20020;-95
2021/03/16 02:00:09;;;;;;;43.38;10.55;;;7.50;99.90;;;;;;4940823;29;20033;-94
2021/03/16 02:02:35;;;;;;;31.38;11.82;;;7.50;99.90;;;;;;4934007;29;20036;-94
2021/03/16 02:05:04;;;;;;;40.65;11.15;;;7.50;99.90;;;;;;4906448;29;20049;-95
2021/03/16 02:07:53;;;;;;;36.00;10.30;;;7.50;99.90;;;;;;4920685;29;20025;-94
2021/03/16 02:10:33;;;;;;;38.85;12.00;;;7.50;99.90;;;;;;4891280;29;20032;-95
2021/03/16 02:13:06;;;;;;;41.80;10.98;;;7.50;99.90;;;;;;4920479;29;20148;-95
2021/03/16 02:15:42;;;;;;;45.33;13.07;;;7.50;99.90;;;;;;4924547;29;20024;-93
2021/03/16 02:18:13;;;;;;;42.92;11.18;;;7.50;99.90;;;;;;4914666;29;20035;-94
2021/03/16 02:21:03;;;;;;;32.67;10.35;;;7.50;99.90;;;;;;4931119;29;20025;-96
2021/03/16 02:23:54;;;;;;;41.38;11.60;;;7.40;99.90;;;;;;4927054;29;20039;-94
2021/03/16 02:27:33;;;;;;;33.13;9.93;;;7.50;99.90;;;;;;4937891;29;20096;-95
2021/03/16 02:30:04;;;;;;;32.57;10.23;;;7.40;99.90;;;;;;5024329;23;20035;-94
2021/03/16 02:32:32;;;;;;;26.67;10.25;;;7.50;99.90;;;;;;4955250;29;20280;-96
2021/03/16 02:35:02;;;;;;;29.92;10.18;;;7.50;99.90;;;;;;5043435;23;20062;-96
2021/03/16 02:37:31;;;;;;;36.60;11.93;;;7.50;99.90;;;;;;5001230;23;20147;-95
2021/03/16 02:39:58;;;;;;;31.15;11.25;;;7.50;99.90;;;;;;4952971;29;20035;-94
2021/03/16 02:42:26;;;;;;;32.85;11.93;;;7.50;99.90;;;;;;4954544;29;20024;-94
2021/03/16 02:44:53;;;;;;;38.92;12.00;;;7.50;99.90;;;;;;4959376;29;20035;-95
2021/03/16 02:47:23;;;;;;;28.20;11.82;;;7.60;99.90;;;;;;4988668;23;20026;-96
2021/03/16 02:49:50;;;;;;;;;;;7.50;99.90;;;;;;4963278;29;20042;-96
2021/03/16 02:52:18;;;;;;;28.05;11.90;;;7.50;99.90;;;;;;4979713;28;19910;-95
2021/03/16 02:54:48;;;;;;;25.65;12.93;;;7.60;99.90;;;;;;4981656;28;20036;-96
2021/03/16 02:57:17;;;;;;;23.90;13.43;;;7.50;99.90;;;;;;4981246;29;20043;-95
2021/03/16 03:10:36;;;;;;;25.02;10.73;;;7.60;99.90;;;;;;5768970;23;20067;-94
2021/03/16 03:13:04;;;;;;;23.15;9.30;;;7.60;99.90;;;;;;4950476;29;20042;-96
2021/03/16 03:15:30;;;;;;;21.63;7.90;;;7.60;99.90;;;;;;4945169;29;20046;-96
2021/03/16 03:17:56;;;;;;;14.75;6.75;;;7.60;99.90;;;;;;4950110;29;20028;-95
2021/03/16 03:20:22;;;;;;;14.38;7.50;;;7.60;99.90;;;;;;4948010;29;20065;-96
2021/03/16 03:23:06;;;;;;;10.85;6.65;;;7.60;99.90;;;;;;4945498;29;20023;-96
2021/03/16 03:25:39;;;;;;;8.35;4.55;;;7.70;99.90;;;;;;4966311;29;20055;-94
2021/03/16 03:28:14;;;;;;;9.25;5.10;;;7.70;99.90;;;;;;4944216;29;20027;-95
2021/03/16 03:30:42;;;;;;;14.88;5.07;;;7.70;99.90;;;;;;4959730;29;20167;-95
2021/03/16 03:33:09;;;;;;;3.70;2.42;;;7.70;99.90;;;;;;4942126;29;20489;-95
2021/03/16 03:35:36;;;;;;;4.13;2.65;;;7.70;99.90;;;;;;4940720;29;20036;-96
2021/03/16 03:38:04;;;;;;;3.25;1.83;;;7.80;99.90;;;;;;4940956;29;20035;-95
2021/03/16 03:40:31;;;;;;;2.65;1.90;;;7.80;99.90;;;;;;4959231;29;20023;-96
2021/03/16 03:43:00;;;;;;;2.10;1.90;;;7.90;99.90;;;;;;4927401;29;20497;-94
2021/03/16 03:45:27;;;;;;;3.58;2.40;;;7.90;99.90;;;;;;4941083;29;20023;-96
2021/03/16 03:47:54;;;;;;;2.47;2.05;;;8.00;99.90;;;;;;4957650;29;20151;-95
2021/03/16 03:50:20;;;;;;;3.13;2.30;;;8.00;99.90;;;;;;4957157;29;20039;-96
2021/03/16 03:52:47;;;;;;;4.50;2.80;;;8.00;99.90;;;;;;4940356;29;20039;-95
2021/03/16 03:55:15;;;;;;;3.78;2.80;;;8.10;99.90;;;;;;4941018;29;20039;-95
2021/03/16 03:57:43;;;;;;;4.50;2.45;;;8.10;99.90;;;;;;4960551;29;20019;-95
2021/03/16 04:00:15;;;;;;;5.00;3.17;;;8.10;99.90;;;;;;4960711;29;20523;-96
2021/03/16 04:02:42;;;;;;;3.63;2.78;;;8.00;99.90;;;;;;4941610;29;20027;-96
2021/03/16 04:05:14;;;;;;;4.65;3.28;;;8.10;99.90;;;;;;4940397;29;20058;-95
2021/03/16 04:07:41;;;;;;;4.43;2.70;;;8.10;99.90;;;;;;4957281;29;20024;-93
2021/03/16 04:10:09;;;;;;;2.38;2.15;;;8.10;99.90;;;;;;4956602;29;20117;-94
2021/03/16 04:12:37;;;;;;;3.80;2.60;;;8.10;99.90;;;;;;4956628;29;20031;-95
2021/03/16 04:15:08;;;;;;;3.00;2.20;;;8.10;99.90;;;;;;4939778;29;20039;-96
2021/03/16 04:17:35;;;;;;;3.63;2.05;;;8.10;99.90;;;;;;4956806;29;20120;-96
2021/03/16 04:20:06;;;;;;;2.00;1.77;;;8.10;99.90;;;;;;4956779;29;20030;-95
2021/03/16 04:22:32;;;;;;;1.63;1.40;;;8.10;99.90;;;;;;4956715;29;20027;-95
2021/03/16 04:24:58;;;;;;;2.30;1.73;;;8.10;99.90;;;;;;4956839;29;20106;-95
2021/03/16 04:27:24;;;;;;;2.42;1.60;;;8.10;99.90;;;;;;4923730;29;20027;-94
2021/03/16 04:29:51;;;;;;;1.80;1.48;;;8.10;99.90;;;;;;4956740;29;20238;-94
2021/03/16 04:32:17;;;;;;;1.58;1.40;;;8.10;99.90;;;;;;4939862;29;20024;-96
2021/03/16 04:34:43;;;;;;;2.28;1.70;;;8.10;99.90;;;;;;4957705;29;20031;-94
2021/03/16 04:37:10;;;;;;;2.80;2.10;;;8.10;99.90;;;;;;4957570;29;20102;-95
2021/03/16 04:39:37;;;;;;;3.33;2.55;;;8.20;99.90;;;;;;4960949;29;20465;-94
2021/03/16 04:42:03;;;;;;;4.47;2.60;;;8.20;99.90;;;;;;4959854;29;20025;-94
2021/03/16 04:44:28;;;;;;;4.50;2.22;;;8.20;99.90;;;;;;4956829;29;20027;-94
2021/03/16 04:46:54;;;;;;;2.55;2.22;;;8.20;99.90;;;;;;4940029;29;20038;-93
2021/03/16 04:49:19;;;;;;;5.35;3.45;;;8.30;99.90;;;;;;4956064;29;20019;-94
2021/03/16 04:51:45;;;;;;;7.22;4.53;;;8.30;99.90;;;;;;4955589;29;20083;-95
2021/03/16 04:54:11;;;;;;;8.95;5.60;;;8.30;99.90;;;;;;4938757;29;20046;-94
2021/03/16 04:56:36;;;;;;;8.60;5.22;;;8.40;99.90;;;;;;4956158;29;20023;-94
2021/03/16 04:59:03;;;;;;;8.88;5.85;;;8.40;99.90;;;;;;4956516;29;20030;-94
2021/03/16 05:01:29;;;;;;;10.32;5.97;;;8.40;99.90;;;;;;4956555;29;20035;-96
2021/03/16 05:03:55;;;;;;;13.15;6.53;;;8.40;99.90;;;;;;4943318;29;20051;-95
2021/03/16 05:06:20;;;;;;;13.52;6.65;;;8.50;99.90;;;;;;4948553;29;20023;-96
2021/03/16 05:08:46;;;;;;;15.57;7.78;;;8.50;99.90;;;;;;4945911;29;20031;-94
2021/03/16 05:11:12;;;;;;;10.00;6.00;;;8.50;99.90;;;;;;4948018;29;20044;-96
2021/03/16 05:13:37;;;;;;;16.27;7.90;;;8.50;99.90;;;;;;4922895;29;20047;-95
2021/03/16 05:16:03;;;;;;;13.88;7.65;;;8.50;99.90;;;;;;4942797;29;20112;-94
2021/03/16 05:18:29;;;;;;;15.88;7.95;;;8.50;99.90;;;;;;4926067;29;20091;-95
2021/03/16 05:20:54;;;;;;;11.90;5.97;;;8.50;99.90;;;;;;4926648;29;20024;-94
2021/03/16 05:23:20;;;;;;;13.57;7.97;;;8.50;99.90;;;;;;4926839;29;20059;-95
2021/03/16 05:25:47;;;;;;;12.25;7.28;;;8.60;99.90;;;;;;4932194;29;20032;-94
2021/03/16 05:28:12;;;;;;;12.32;6.05;;;8.60;99.90;;;;;;4934673;29;20028;-95
2021/03/16 05:30:38;;;;;;;16.45;8.00;;;8.60;99.90;;;;;;4956183;29;20050;-94
2021/03/16 05:33:04;;;;;;;10.65;7.25;;;8.60;99.90;;;;;;4963644;29;20043;-94
2021/03/16 05:35:30;;;;;;;9.00;4.88;;;8.60;99.90;;;;;;4931128;29;20023;-95
2021/03/16 05:37:56;;;;;;;9.95;5.95;;;8.70;99.90;;;;;;4950056;29;20024;-92
2021/03/16 05:40:23;;;;;;;12.75;7.22;;;8.70;99.90;;;;;;4928257;29;20438;-93
2021/03/16 05:42:51;;;;;;;11.60;6.65;;;8.70;99.90;;;;;;4927035;29;20027;-93
2021/03/16 05:45:17;;;;;;;9.75;6.45;;;8.70;99.90;;;;;;4942681;29;20036;-95
2021/03/16 05:47:48;;;;;;;14.70;7.63;;;8.70;99.90;;;;;;4925645;29;20028;-95
2021/03/16 05:50:15;;;;;;;11.18;6.93;;;8.70;99.90;;;;;;4925811;29;20060;-95
2021/03/16 05:52:41;;;;;;;10.35;6.38;;;8.70;99.90;;;;;;4925408;29;20087;-95
2021/03/16 05:55:08;;;;;;;9.88;6.25;;;8.70;99.90;;;;;;4925334;29;20023;-96
2021/03/16 05:57:34;;;;;;;11.93;5.13;;;8.70;99.90;;;;;;4942285;29;20039;-94
2021/03/16 06:00:00;;;;;;;9.63;5.30;;;8.70;99.90;;;;;;4925291;29;20031;-95
2021/03/16 06:02:25;;;;;;;7.93;5.68;;;8.70;99.90;;;;;;4924739;29;20038;-95
2021/03/16 06:04:51;;;;;;;11.57;5.38;;;8.70;99.90;;;;;;4925374;29;20388;-95
2021/03/16 06:07:17;;;;;;;9.93;5.85;;;8.80;99.90;;;;;;4926545;29;20114;-94
2021/03/16 06:09:44;;;;;;;14.80;5.70;;;8.80;99.90;;;;;;4958976;29;20023;-95
2021/03/16 06:12:10;;;;;;;10.77;5.60;;;8.80;99.90;;;;;;4943953;29;20544;-94
2021/03/16 06:14:39;;;;;;;12.93;5.55;;;8.70;99.90;;;;;;4947060;29;20046;-95
2021/03/16 06:17:05;;;;;;;7.63;4.38;;;8.70;99.90;;;;;;4957902;29;20043;-95
2021/03/16 06:19:33;;;;;;;9.18;5.85;;;8.70;99.90;;;;;;4959844;29;20023;-95
2021/03/16 06:22:04;;;;;;;6.93;4.25;;;8.70;99.90;;;;;;4941323;29;20024;-94
2021/03/16 06:24:31;;;;;;;7.38;4.55;;;8.70;99.90;;;;;;4940300;29;20063;-93
2021/03/16 06:26:57;;;;;;;9.10;4.20;;;8.70;99.90;;;;;;4938905;29;20039;-96
2021/03/16 06:29:23;;;;;;;6.25;3.30;;;8.70;99.90;;;;;;4938110;29;20430;-95
2021/03/16 06:31:49;;;;;;;9.55;2.95;;;8.70;99.90;;;;;;4937756;29;20016;-95
2021/03/16 06:34:26;;;;;;;6.20;4.03;;;8.70;99.90;;;;;;4937531;29;20043;-96
2021/03/16 06:36:59;;;;;;;7.90;2.95;;;8.60;99.90;;;;;;4937944;29;20051;-95
2021/03/16 06:39:27;;;;;;;7.28;3.90;;;8.60;99.90;;;;;;4936127;29;20054;-94
2021/03/16 06:41:54;;;;;;;8.77;2.90;;;8.60;99.90;;;;;;4938041;29;20494;-94
2021/03/16 06:44:22;;;;;;;6.63;3.65;;;8.60;99.90;;;;;;4937856;29;20031;-95
2021/03/16 06:46:55;;;;;;;5.53;3.28;;;8.60;99.90;;;;;;4937659;29;20036;-94
2021/03/16 06:49:22;;;;;;;4.45;3.17;;;8.60;99.90;;;;;;4932524;29;20498;-94
2021/03/16 06:51:49;;;;;;;4.65;2.97;;;8.60;99.90;;;;;;4937916;29;20035;-94
2021/03/16 06:54:15;;;;;;;6.05;3.45;;;8.60;99.90;;;;;;4937253;29;20133;-95
2021/03/16 06:56:49;;;;;;;10.80;3.38;;;8.60;99.90;;;;;;4938845;29;20064;-95
2021/03/16 06:59:41;;;;;;;6.57;3.30;;;8.70;99.90;;;;;;4942477;29;20219;-93
2021/03/16 07:02:16;;;;;;;5.88;3.58;;;8.60;99.90;;;;;;4933106;29;20039;-94
2021/03/16 07:04:43;;;;;;;4.63;3.05;;;8.60;99.90;;;;;;4933152;29;20059;-95
2021/03/16 07:07:10;;;;;;;15.10;3.65;;;8.60;99.90;;;;;;4938227;29;20031;-95
2021/03/16 07:09:36;;;;;;;7.30;3.40;;;8.70;99.90;;;;;;4934877;29;20548;-94
2021/03/16 07:12:03;;;;;;;6.75;3.80;;;8.70;99.90;;;;;;4936813;29;20052;-94
2021/03/16 07:14:31;;;;;;;9.27;4.43;;;8.70;99.90;;;;;;4936470;29;20035;-95
2021/03/16 07:17:00;;;;;;;9.38;4.00;;;8.70;99.90;;;;;;4934292;29;20034;-95
2021/03/16 07:19:29;;;;;;;7.88;4.22;;;8.80;99.90;;;;;;4938626;29;20038;-95
2021/03/16 07:21:56;;;;;;;6.50;3.60;;;8.70;99.90;;;;;;4939645;29;20020;-93
2021/03/16 07:24:36;;;;;;;11.13;4.20;;;8.80;99.90;;;;;;4938202;29;20031;-93
2021/03/16 07:27:08;;;;;;;6.68;3.63;;;8.80;99.90;;;;;;4942803;29;20004;-94
2021/03/16 07:29:35;;;;;;;9.10;4.20;;;8.80;99.90;;;;;;4949157;29;20036;-95
2021/03/16 07:32:05;;;;;;;14.35;3.42;;;8.80;99.90;;;;;;4968980;23;20056;-95
2021/03/16 07:34:31;;;;;;;7.72;3.28;;;8.80;99.90;;;;;;4921801;29;20160;-96
2021/03/16 07:37:02;;;;;;;3.35;2.55;;;8.80;99.90;;;;;;4924224;29;20167;-95
2021/03/16 07:39:28;;;;;;;4.82;2.65;;;8.80;99.90;;;;;;4921389;29;20149;-93
2021/03/16 07:41:54;;;;;;;3.35;2.20;;;8.90;99.90;;;;;;4927099;29;20452;-95
2021/03/16 07:44:20;;;;;;;4.80;2.40;;;8.90;99.90;;;;;;4924575;29;20032;-94
2021/03/16 07:46:47;;;;;;;5.95;3.13;;;8.90;99.90;;;;;;4926533;29;20435;-95
2021/03/16 07:49:29;;;;;;;4.53;2.67;;;9.00;99.90;;;;;;4925769;29;20083;-95
2021/03/16 07:51:56;;;;;;;3.85;1.98;;;8.90;99.90;;;;;;4974872;23;20054;-94
2021/03/16 07:54:22;;;;;;;5.10;2.42;;;8.90;99.90;;;;;;5077247;23;20035;-94
2021/03/16 07:57:01;;;;;;;1.58;1.25;;;8.90;99.90;;;;;;4962279;29;20066;-95
2021/03/16 07:59:35;;;;;;;4.65;2.28;;;8.90;99.90;;;;;;4944888;29;20046;-96
2021/03/16 08:02:02;;;;;;;4.05;2.08;;;9.00;99.90;;;;;;4962515;28;20019;-94
2021/03/16 08:04:34;;;;;;;3.13;1.73;;;9.00;99.90;;;;;;4963025;29;20050;-94
2021/03/16 08:07:03;;;;;;;2.75;2.00;;;8.90;99.90;;;;;;4965514;29;20037;-92
2021/03/16 08:09:29;;;;;;;3.80;1.83;;;9.00;99.90;;;;;;4966829;29;20032;-94
2021/03/16 08:11:55;;;;;;;4.60;1.75;;;8.90;99.90;;;;;;4960022;29;20035;-94
2021/03/16 08:14:29;;;;;;;2.17;1.27;;;8.90;99.90;;;;;;4927580;29;20050;-95
2021/03/16 08:16:55;;;;;;;2.22;1.65;;;9.00;99.90;;;;;;4959257;29;20035;-93
2021/03/16 08:19:34;;;;;;;3.22;1.27;;;9.00;99.90;;;;;;4959409;29;20034;-96
2021/03/16 08:22:00;;;;;;;2.45;1.50;;;9.00;99.90;;;;;;4959638;29;20107;-94
2021/03/16 08:24:40;;;;;;;3.13;1.23;;;9.00;99.90;;;;;;4942739;29;20035;-93
2021/03/16 08:27:13;;;;;;;2.35;1.35;;;9.00;99.90;;;;;;4958662;29;20031;-93
2021/03/16 08:29:45;;;;;;;1.73;1.20;;;9.00;99.90;;;;;;4939635;29;20051;-93
2021/03/16 08:32:17;;;;;;;2.30;1.13;;;9.00;99.90;;;;;;4955888;28;20047;-94
2021/03/16 08:34:43;;;;;;;5.38;1.38;;;9.00;99.90;;;;;;4957437;29;20031;-93
2021/03/16 08:37:23;;;;;;;1.80;1.15;;;9.00;99.90;;;;;;4939632;29;20034;-92
2021/03/16 08:39:50;;;;;;;1.65;0.95;;;9.00;99.90;;;;;;4939672;29;20115;-94
2021/03/16 08:42:18;;;;;;;2.25;1.42;;;9.00;99.90;;;;;;4939190;29;20062;-92
2021/03/16 08:44:44;;;;;;;2.63;1.60;;;9.00;99.90;;;;;;4955990;29;20023;-94
2021/03/16 08:47:11;;;;;;;2.05;1.58;;;9.00;99.90;;;;;;4956584;29;20050;-94
2021/03/16 08:49:39;;;;;;;2.28;1.52;;;9.00;99.90;;;;;;4937306;29;20153;-94
2021/03/16 08:52:14;;;;;;;2.90;1.67;;;9.00;99.90;;;;;;4916987;29;20052;-94
2021/03/16 08:54:40;;;;;;;3.53;1.40;;;9.00;99.90;;;;;;4915077;29;20405;-93
2021/03/16 08:57:06;;;;;;;2.97;1.52;;;9.10;99.90;;;;;;4930545;29;20167;-94
2021/03/16 08:59:32;;;;;;;2.28;1.63;;;9.00;99.90;;;;;;4931823;29;20023;-95
2021/03/16 09:01:58;;;;;;;2.05;1.58;;;9.00;99.90;;;;;;4962679;29;20038;-93
2021/03/16 09:04:24;;;;;;;1.48;1.10;;;9.10;99.90;;;;;;4955871;29;20016;-92
2021/03/16 09:06:52;;;;;;;1.80;1.70;;;9.10;99.90;;;;;;4960265;29;20027;-93
2021/03/16 09:09:27;;;;;;;1.95;1.58;;;9.20;99.90;;;;;;4944018;29;20211;-95
2021/03/16 09:11:54;;;;;;;3.50;2.20;;;9.20;99.90;;;;;;4936504;29;20031;-94
2021/03/16 09:14:21;;;;;;;6.18;2.47;;;9.20;99.90;;;;;;4947324;29;20032;-94
2021/03/16 09:16:52;;;;;;;4.22;3.00;;;9.20;99.90;;;;;;4916335;29;20023;-94
2021/03/16 09:19:31;;;;;;;5.97;3.58;;;9.30;99.90;;;;;;4925529;29;20032;-94
2021/03/16 09:22:01;;;;;;;6.72;3.70;;;9.30;99.90;;;;;;4929068;29;20034;-95
2021/03/16 09:24:28;;;;;;;8.98;4.45;;;9.20;99.90;;;;;;4939519;29;20089;-92
2021/03/16 09:27:02;;;;;;;5.57;3.65;;;9.30;99.90;;;;;;4938444;29;20023;-93
2021/03/16 09:29:34;;;;;;;3.88;2.97;;;9.30;99.90;;;;;;4939729;29;20034;-92
2021/03/16 09:32:02;;;;;;;4.05;2.90;;;9.40;99.90;;;;;;4956238;29;20027;-93
2021/03/16 09:34:28;;;;;;;5.40;3.13;;;9.40;99.90;;;;;;4954621;28;20058;-93
2021/03/16 09:37:11;;;;;;;3.85;2.55;;;9.40;99.90;;;;;;4931212;29;20058;-93
2021/03/16 09:39:37;;;;;;;1.88;1.50;;;9.50;99.90;;;;;;4930341;28;20032;-92
2021/03/16 09:42:06;;;;;;;1.73;1.60;;;9.50;99.90;;;;;;4929029;29;20019;-95
2021/03/16 09:44:44;;;;;;;1.83;1.67;;;9.60;99.90;;;;;;4930283;29;20059;-93
2021/03/16 09:47:09;;;;;;;1.20;1.10;;;9.60;99.90;;;;;;4932488;29;20481;-95
2021/03/16 09:49:38;;;;;;;2.22;0.90;;;9.70;99.90;;;;;;4929204;29;20067;-95
2021/03/16 09:52:10;;;;;;;1.20;1.10;;;9.70;99.90;;;;;;4930989;29;20028;-95
2021/03/16 09:54:46;;;;;;;1.23;1.00;;;9.80;99.90;;;;;;4931425;29;20058;-94
2021/03/16 09:57:13;;;;;;;1.95;1.15;;;9.80;99.90;;;;;;4930497;29;20177;-94
2021/03/16 09:59:41;;;;;;;1.00;0.90;;;9.80;99.90;;;;;;4932858;28;20031;-94
2021/03/16 10:02:07;;;;;;;1.20;0.80;;;9.90;99.90;;;;;;4930333;28;20111;-92
2021/03/16 10:04:50;;;;;;;1.05;0.70;;;10.00;99.90;;;;;;4958230;29;20070;-93
2021/03/16 10:07:30;;;;;;;0.60;0.60;;;10.00;99.90;;;;;;4957362;29;20055;-94
2021/03/16 10:10:23;;;;;;;1.67;0.70;;;10.10;99.90;;;;;;4960350;29;20035;-94
2021/03/16 10:12:56;;;;;;;0.68;0.60;;;10.10;99.90;;;;;;4958632;29;20031;-95
2021/03/16 10:15:44;;;;;;;1.20;0.80;;;10.20;99.90;;;;;;4958077;29;20346;-93
2021/03/16 10:18:13;;;;;;;2.03;0.95;;;10.20;99.90;;;;;;4932348;29;20107;-91
2021/03/16 10:20:43;;;;;;;1.27;1.17;;;10.20;99.90;;;;;;4931980;29;20026;-92
2021/03/16 10:23:12;;;;;;;2.95;1.15;;;10.20;99.90;;;;;;4956044;29;20034;-93
2021/03/16 10:25:38;;;;;;;1.08;0.98;;;10.20;99.90;;;;;;4956181;29;20106;-92
2021/03/16 10:28:06;;;;;;;1.60;1.27;;;10.20;99.90;;;;;;4938835;29;20495;-95
2021/03/16 10:30:44;;;;;;;1.48;1.10;;;10.30;99.90;;;;;;4935382;29;20122;-94
2021/03/16 10:33:12;;;;;;;1.30;1.20;;;10.30;99.90;;;;;;4934882;29;20373;-93
2021/03/16 10:35:40;;;;;;;2.55;1.35;;;10.30;99.90;;;;;;4940039;29;20027;-95
2021/03/16 10:38:08;;;;;;;1.83;1.23;;;10.30;99.90;;;;;;4937884;29;20027;-94
2021/03/16 10:40:35;;;;;;;1.80;1.50;;;10.30;99.90;;;;;;4936141;29;20024;-95
2021/03/16 10:43:02;;;;;;;2.45;1.33;;;10.40;99.90;;;;;;4939363;29;20126;-95
2021/03/16 10:45:28;;;;;;;1.80;1.40;;;10.30;99.90;;;;;;4934303;29;20035;-95
2021/03/16 10:47:54;;;;;;;1.48;1.38;;;10.40;99.90;;;;;;4940599;29;21281;-96
2021/03/16 10:50:20;;;;;;;2.03;1.83;;;10.40;99.90;;;;;;4944980;29;20034;-95
2021/03/16 10:52:46;;;;;;;3.80;1.67;;;10.50;99.90;;;;;;4946905;29;20027;-94
2021/03/16 10:55:12;;;;;;;1.92;1.58;;;10.50;99.90;;;;;;4940200;29;20039;-94
2021/03/16 10:57:38;;;;;;;1.90;1.58;;;10.60;99.90;;;;;;4936884;29;20027;-93
2021/03/16 11:00:07;;;;;;;2.30;1.73;;;10.70;99.90;;;;;;4930781;29;20087;-95
2021/03/16 11:02:33;;;;;;;4.00;1.50;;;10.80;99.90;;;;;;4932382;29;20023;-94
2021/03/16 11:04:59;;;;;;;2.65;1.80;;;11.10;99.90;;;;;;4933523;29;20034;-96
2021/03/16 11:07:24;;;;;;;2.85;1.85;;;11.30;99.90;;;;;;4931257;29;20713;-95
2021/03/16 11:09:50;;;;;;;3.45;1.90;;;11.50;99.90;;;;;;4934413;29;20053;-94
2021/03/16 11:12:18;;;;;;;1.80;1.60;;;11.70;99.90;;;;;;4939278;29;20035;-95
2021/03/16 11:14:44;;;;;;;3.55;2.00;;;12.00;99.90;;;;;;4932038;29;20074;-94
2021/03/16 11:17:11;;;;;;;2.45;1.70;;;12.20;99.90;;;;;;4939908;29;20164;-94
2021/03/16 11:19:37;;;;;;;3.10;1.73;;;12.50;99.90;;;;;;4933226;29;20469;-95
2021/03/16 11:22:03;;;;;;;3.17;1.90;;;12.60;99.90;;;;;;4935385;29;20078;-95
2021/03/16 11:24:29;;;;;;;3.70;1.73;;;12.70;99.90;;;;;;4936336;29;20019;-94
2021/03/16 11:26:54;;;;;;;4.13;2.00;;;12.80;99.90;;;;;;4933177;29;20030;-94
2021/03/16 11:29:20;;;;;;;3.35;1.83;;;12.90;99.90;;;;;;4938305;29;20023;-93
2021/03/16 11:31:47;;;;;;;3.65;1.88;;;13.00;99.90;;;;;;4955576;29;20120;-94
2021/03/16 11:34:13;;;;;;;3.00;1.90;;;13.00;99.90;;;;;;4930898;29;20038;-95
2021/03/16 11:36:38;;;;;;;3.72;2.05;;;13.00;99.90;;;;;;4930888;29;20484;-94
2021/03/16 11:39:05;;;;;;;2.63;1.52;;;12.90;99.90;;;;;;4938440;29;20027;-96
2021/03/16 11:41:31;;;;;;;3.03;1.83;;;12.90;99.90;;;;;;4956417;29;20114;-95
2021/03/16 11:43:56;;;;;;;3.80;2.10;;;13.00;99.90;;;;;;4940192;29;20053;-96
2021/03/16 11:46:22;;;;;;;4.03;2.05;;;13.00;99.90;;;;;;4944000;29;20556;-95
2021/03/16 11:48:48;;;;;;;2.92;1.92;;;13.00;99.90;;;;;;4932639;29;20028;-95
2021/03/16 11:51:13;;;;;;;2.38;1.92;;;13.00;99.90;;;;;;4932395;29;20023;-95
2021/03/16 11:53:39;;;;;;;2.30;1.70;;;13.20;99.90;;;;;;4938196;29;20031;-94
2021/03/16 11:56:05;;;;;;;2.65;1.60;;;13.30;99.90;;;;;;4930495;29;20098;-95
2021/03/16 11:58:33;;;;;;;3.95;1.45;;;13.40;99.90;;;;;;4935922;29;20020;-95
2021/03/16 12:00:59;;;;;;;2.28;1.98;;;13.50;99.90;;;;;;4938267;29;20031;-95
2021/03/16 12:03:25;;;;;;;1.50;1.40;;;13.60;99.90;;;;;;4937570;29;20027;-95
2021/03/16 12:05:51;;;;;;;1.58;1.33;;;13.60;99.90;;;;;;4929418;29;20504;-95
2021/03/16 12:08:17;;;;;;;2.63;1.25;;;13.90;99.90;;;;;;4939841;29;20027;-96
2021/03/16 12:10:43;;;;;;;3.75;1.45;;;14.20;99.90;;;;;;4928522;29;20123;-95
2021/03/16 12:13:09;;;;;;;2.42;1.55;;;14.30;99.90;;;;;;4930122;29;20041;-95
2021/03/16 12:15:34;;;;;;;1.80;1.35;;;14.40;99.90;;;;;;4940020;29;20489;-95
2021/03/16 12:18:00;;;;;;;2.10;1.58;;;14.30;99.90;;;;;;4939734;29;20478;-96
2021/03/16 12:20:26;;;;;;;1.92;1.20;;;14.20;99.90;;;;;;4944573;29;20055;-96
2021/03/16 12:22:52;;;;;;;1.58;1.10;;;14.00;99.90;;;;;;4946224;29;20470;-96
2021/03/16 12:25:18;;;;;;;2.33;1.23;;;13.90;99.90;;;;;;4941172;29;20077;-96
2021/03/16 12:27:45;;;;;;;1.35;1.20;;;13.70;99.90;;;;;;4947810;29;20055;-96
2021/03/16 12:30:12;;;;;;;2.00;1.20;;;13.60;99.90;;;;;;4949589;29;20039;-95
2021/03/16 12:32:38;;;;;;;1.92;1.10;;;13.60;99.90;;;;;;4943105;29;20027;-95
2021/03/16 12:35:12;;;;;;;1.55;1.13;;;13.50;99.90;;;;;;4948101;29;20032;-96
2021/03/16 12:37:40;;;;;;;3.35;1.30;;;13.40;99.90;;;;;;4943797;29;20334;-96
2021/03/16 12:40:08;;;;;;;1.17;1.08;;;13.40;99.90;;;;;;4940514;29;20015;-96
2021/03/16 12:42:35;;;;;;;1.60;0.93;;;13.30;99.90;;;;;;4941272;29;20038;-95
2021/03/16 12:45:01;;;;;;;1.35;0.77;;;13.20;99.90;;;;;;4942081;29;20043;-96
2021/03/16 12:47:27;;;;;;;2.08;1.02;;;13.10;99.90;;;;;;4937433;29;20038;-95
2021/03/16 12:49:53;;;;;;;1.90;0.90;;;13.00;99.90;;;;;;4941093;29;20912;-95
2021/03/16 12:52:19;;;;;;;2.30;1.05;;;13.00;99.90;;;;;;4939286;29;20086;-95
2021/03/16 12:54:46;;;;;;;1.15;0.90;;;12.90;99.90;;;;;;4937248;29;20046;-96
2021/03/16 12:57:13;;;;;;;2.47;0.70;;;12.90;99.90;;;;;;4942011;29;20043;-95
2021/03/16 12:59:39;;;;;;;1.48;0.80;;;12.90;99.90;;;;;;4940399;29;20030;-96
2021/03/16 13:02:05;;;;;;;0.80;0.77;;;13.00;99.90;;;;;;4925676;29;20027;-95
2021/03/16 13:04:31;;;;;;;1.17;0.90;;;13.00;99.90;;;;;;4931053;29;20020;-95
2021/03/16 13:06:56;;;;;;;0.73;0.70;;;13.00;99.90;;;;;;4941606;29;20107;-95